sensor_id;sensor_type;location;lat;lon;timestamp;temperature;humidity
24097;DHT22;12275;48.550;12.132;2022-08-11T00:01:27;20.40;99.90
24097;DHT22;12275;48.550;12.132;2022-08-11T00:04:01;20.30;99.90
24097;DHT22;12275;48.550;12.132;2022-08-11T00:06:38;20.30;99.90
24097;DHT22;12275;48.550;12.132;2022-08-11T00:09:10;20.30;99.90
24097;DHT22;12275;48.550;12.132;2022-08-11T00:11:42;20.30;99.90
24097;DHT22;12275;48.550;12.132;2022-08-11T00:16:43;20.20;99.90
24097;DHT22;12275;48.550;12.132;2022-08-11T00:19:11;20.20;99.90
24097;DHT22;12275;48.550;12.132;2022-08-11T00:21:42;20.20;99.90
24097;DHT22;12275;48.550;12.132;2022-08-11T00:24:08;20.20;99.90
24097;DHT22;12275;48.550;12.132;2022-08-11T00:26:35;20.10;99.90
24097;DHT22;12275;48.550;12.132;2022-08-11T00:29:11;20.10;99.90
24097;DHT22;12275;48.550;12.132;2022-08-11T00:31:37;20.10;99.90
24097;DHT22;12275;48.550;12.132;2022-08-11T00:34:10;20.10;99.90
24097;DHT22;12275;48.550;12.132;2022-08-11T00:37:09;20.00;99.90
24097;DHT22;12275;48.550;12.132;2022-08-11T00:39:45;20.00;99.90
24097;DHT22;12275;48.550;12.132;2022-08-11T00:45:19;20.00;99.90
24097;DHT22;12275;48.550;12.132;2022-08-11T00:53:37;20.00;99.90
24097;DHT22;12275;48.550;12.132;2022-08-11T01:04:58;19.90;99.90
24097;DHT22;12275;48.550;12.132;2022-08-11T01:16:23;19.70;99.90
24097;DHT22;12275;48.550;12.132;2022-08-11T01:19:10;19.70;99.90
24097;DHT22;12275;48.550;12.132;2022-08-11T01:41:28;19.60;99.90
24097;DHT22;12275;48.550;12.132;2022-08-11T01:47:58;19.60;99.90
24097;DHT22;12275;48.550;12.132;2022-08-11T01:56:31;19.40;99.90
24097;DHT22;12275;48.550;12.132;2022-08-11T01:59:14;19.40;99.90
24097;DHT22;12275;48.550;12.132;2022-08-11T02:01:49;19.40;99.90
24097;DHT22;12275;48.550;12.132;2022-08-11T02:07:17;19.30;99.90
24097;DHT22;12275;48.550;12.132;2022-08-11T02:10:04;19.40;99.90
24097;DHT22;12275;48.550;12.132;2022-08-11T02:13:09;19.40;99.90
24097;DHT22;12275;48.550;12.132;2022-08-11T02:16:16;19.30;99.90
24097;DHT22;12275;48.550;12.132;2022-08-11T02:22:17;19.30;99.90
24097;DHT22;12275;48.550;12.132;2022-08-11T02:25:52;19.30;99.90
24097;DHT22;12275;48.550;12.132;2022-08-11T02:31:08;19.20;99.90
24097;DHT22;12275;48.550;12.132;2022-08-11T02:40:09;19.20;99.90
24097;DHT22;12275;48.550;12.132;2022-08-11T02:45:48;19.10;99.90
24097;DHT22;12275;48.550;12.132;2022-08-11T02:49:10;19.10;99.90
24097;DHT22;12275;48.550;12.132;2022-08-11T02:51:38;19.10;99.90
24097;DHT22;12275;48.550;12.132;2022-08-11T02:54:16;19.00;99.90
24097;DHT22;12275;48.550;12.132;2022-08-11T02:59:56;19.00;99.90
24097;DHT22;12275;48.550;12.132;2022-08-11T03:13:05;18.90;99.90
24097;DHT22;12275;48.550;12.132;2022-08-11T03:16:14;18.80;99.90
24097;DHT22;12275;48.550;12.132;2022-08-11T03:19:08;18.90;99.90
24097;DHT22;12275;48.550;12.132;2022-08-11T03:21:45;18.90;99.90
24097;DHT22;12275;48.550;12.132;2022-08-11T03:24:20;18.90;99.90
24097;DHT22;12275;48.550;12.132;2022-08-11T03:27:17;18.90;99.90
24097;DHT22;12275;48.550;12.132;2022-08-11T03:38:52;18.80;99.90
24097;DHT22;12275;48.550;12.132;2022-08-11T03:44:49;18.70;99.90
24097;DHT22;12275;48.550;12.132;2022-08-11T03:58:35;18.70;99.90
24097;DHT22;12275;48.550;12.132;2022-08-11T04:04:17;18.60;99.90
24097;DHT22;12275;48.550;12.132;2022-08-11T04:16:38;18.60;99.90
24097;DHT22;12275;48.550;12.132;2022-08-11T04:22:03;18.60;99.90
24097;DHT22;12275;48.550;12.132;2022-08-11T04:24:57;18.50;99.90
24097;DHT22;12275;48.550;12.132;2022-08-11T04:36:46;18.60;99.90
24097;DHT22;12275;48.550;12.132;2022-08-11T04:46:24;18.60;99.90
24097;DHT22;12275;48.550;12.132;2022-08-11T04:58:47;18.80;99.90
24097;DHT22;12275;48.550;12.132;2022-08-11T05:02:23;18.70;99.90
24097;DHT22;12275;48.550;12.132;2022-08-11T05:13:34;18.60;99.90
24097;DHT22;12275;48.550;12.132;2022-08-11T05:16:31;18.60;99.90
24097;DHT22;12275;48.550;12.132;2022-08-11T05:19:18;18.60;99.90
24097;DHT22;12275;48.550;12.132;2022-08-11T05:22:07;18.70;99.90
24097;DHT22;12275;48.550;12.132;2022-08-11T05:25:09;18.70;99.90
24097;DHT22;12275;48.550;12.132;2022-08-11T05:28:09;18.70;99.90
24097;DHT22;12275;48.550;12.132;2022-08-11T05:31:14;18.80;99.90
24097;DHT22;12275;48.550;12.132;2022-08-11T05:36:54;18.90;99.90
24097;DHT22;12275;48.550;12.132;2022-08-11T05:39:37;18.90;99.90
24097;DHT22;12275;48.550;12.132;2022-08-11T05:42:23;19.00;99.90
24097;DHT22;12275;48.550;12.132;2022-08-11T05:45:14;19.10;99.90
24097;DHT22;12275;48.550;12.132;2022-08-11T05:47:59;19.30;99.90
24097;DHT22;12275;48.550;12.132;2022-08-11T05:50:59;19.30;99.90
24097;DHT22;12275;48.550;12.132;2022-08-11T05:53:47;19.30;99.90
24097;DHT22;12275;48.550;12.132;2022-08-11T05:56:33;19.30;99.90
24097;DHT22;12275;48.550;12.132;2022-08-11T05:59:12;19.30;99.90
24097;DHT22;12275;48.550;12.132;2022-08-11T06:01:41;19.40;99.90
24097;DHT22;12275;48.550;12.132;2022-08-11T06:04:11;19.50;99.90
24097;DHT22;12275;48.550;12.132;2022-08-11T06:06:56;19.60;99.90
24097;DHT22;12275;48.550;12.132;2022-08-11T06:09:33;19.80;99.90
24097;DHT22;12275;48.550;12.132;2022-08-11T06:12:06;19.90;99.90
24097;DHT22;12275;48.550;12.132;2022-08-11T06:14:34;20.00;99.90
24097;DHT22;12275;48.550;12.132;2022-08-11T06:17:02;20.20;99.90
24097;DHT22;12275;48.550;12.132;2022-08-11T06:19:37;20.30;99.90
24097;DHT22;12275;48.550;12.132;2022-08-11T06:22:05;20.40;99.90
24097;DHT22;12275;48.550;12.132;2022-08-11T06:24:34;20.50;99.90
24097;DHT22;12275;48.550;12.132;2022-08-11T06:27:02;20.70;99.90
24097;DHT22;12275;48.550;12.132;2022-08-11T06:29:31;20.80;99.90
24097;DHT22;12275;48.550;12.132;2022-08-11T06:32:00;20.90;99.90
24097;DHT22;12275;48.550;12.132;2022-08-11T06:40:08;21.20;99.90
24097;DHT22;12275;48.550;12.132;2022-08-11T06:43:17;21.30;99.90
24097;DHT22;12275;48.550;12.132;2022-08-11T06:45:58;21.40;99.90
24097;DHT22;12275;48.550;12.132;2022-08-11T06:48:31;21.50;99.90
24097;DHT22;12275;48.550;12.132;2022-08-11T06:51:08;21.50;99.90
24097;DHT22;12275;48.550;12.132;2022-08-11T06:53:44;21.60;99.90
24097;DHT22;12275;48.550;12.132;2022-08-11T06:56:15;21.70;99.90
24097;DHT22;12275;48.550;12.132;2022-08-11T06:59:05;21.80;99.90
24097;DHT22;12275;48.550;12.132;2022-08-11T07:10:39;22.30;99.90
24097;DHT22;12275;48.550;12.132;2022-08-11T07:13:32;22.60;99.90
24097;DHT22;12275;48.550;12.132;2022-08-11T07:16:22;22.70;99.90
24097;DHT22;12275;48.550;12.132;2022-08-11T07:18:49;22.80;99.90
24097;DHT22;12275;48.550;12.132;2022-08-11T07:21:35;23.00;99.90
24097;DHT22;12275;48.550;12.132;2022-08-11T07:24:25;23.00;99.90
24097;DHT22;12275;48.550;12.132;2022-08-11T07:27:19;23.10;99.90
24097;DHT22;12275;48.550;12.132;2022-08-11T07:30:08;23.20;99.90
24097;DHT22;12275;48.550;12.132;2022-08-11T07:32:44;23.30;99.90
24097;DHT22;12275;48.550;12.132;2022-08-11T07:35:14;23.40;99.90
24097;DHT22;12275;48.550;12.132;2022-08-11T07:37:49;23.50;99.90
24097;DHT22;12275;48.550;12.132;2022-08-11T07:40:25;23.50;99.90
24097;DHT22;12275;48.550;12.132;2022-08-11T07:42:53;23.60;99.90
24097;DHT22;12275;48.550;12.132;2022-08-11T07:45:21;23.70;99.90
24097;DHT22;12275;48.550;12.132;2022-08-11T07:48:06;23.80;99.90
24097;DHT22;12275;48.550;12.132;2022-08-11T07:50:52;24.00;99.90
24097;DHT22;12275;48.550;12.132;2022-08-11T07:53:37;24.10;99.90
24097;DHT22;12275;48.550;12.132;2022-08-11T07:56:04;24.20;99.90
24097;DHT22;12275;48.550;12.132;2022-08-11T07:58:35;24.40;99.90
24097;DHT22;12275;48.550;12.132;2022-08-11T08:01:24;24.40;99.30
24097;DHT22;12275;48.550;12.132;2022-08-11T08:04:10;24.30;98.90
24097;DHT22;12275;48.550;12.132;2022-08-11T08:06:56;24.40;98.90
24097;DHT22;12275;48.550;12.132;2022-08-11T08:09:42;24.40;97.00
24097;DHT22;12275;48.550;12.132;2022-08-11T08:12:28;24.50;98.30
24097;DHT22;12275;48.550;12.132;2022-08-11T08:15:14;24.70;99.60
24097;DHT22;12275;48.550;12.132;2022-08-11T08:18:02;24.80;98.50
24097;DHT22;12275;48.550;12.132;2022-08-11T08:20:51;25.00;98.80
24097;DHT22;12275;48.550;12.132;2022-08-11T08:23:17;25.10;99.20
24097;DHT22;12275;48.550;12.132;2022-08-11T08:25:58;25.20;97.60
24097;DHT22;12275;48.550;12.132;2022-08-11T08:28:27;25.30;98.20
24097;DHT22;12275;48.550;12.132;2022-08-11T08:30:54;25.40;97.30
24097;DHT22;12275;48.550;12.132;2022-08-11T08:33:29;25.50;97.10
24097;DHT22;12275;48.550;12.132;2022-08-11T08:35:58;25.60;97.00
24097;DHT22;12275;48.550;12.132;2022-08-11T08:38:47;25.70;96.80
24097;DHT22;12275;48.550;12.132;2022-08-11T08:41:16;25.70;96.20
24097;DHT22;12275;48.550;12.132;2022-08-11T08:43:48;25.70;96.20
24097;DHT22;12275;48.550;12.132;2022-08-11T08:46:15;25.70;96.60
24097;DHT22;12275;48.550;12.132;2022-08-11T08:48:45;25.90;96.40
24097;DHT22;12275;48.550;12.132;2022-08-11T08:51:12;26.00;94.80
24097;DHT22;12275;48.550;12.132;2022-08-11T08:54:03;25.90;96.20
24097;DHT22;12275;48.550;12.132;2022-08-11T08:56:30;25.90;95.10
24097;DHT22;12275;48.550;12.132;2022-08-11T08:59:00;26.00;95.40
24097;DHT22;12275;48.550;12.132;2022-08-11T09:01:29;25.90;94.50
24097;DHT22;12275;48.550;12.132;2022-08-11T09:03:56;26.00;94.90
24097;DHT22;12275;48.550;12.132;2022-08-11T09:06:22;26.00;93.80
24097;DHT22;12275;48.550;12.132;2022-08-11T09:08:49;25.90;94.40
24097;DHT22;12275;48.550;12.132;2022-08-11T09:11:15;26.00;96.20
24097;DHT22;12275;48.550;12.132;2022-08-11T09:13:59;26.10;95.00
24097;DHT22;12275;48.550;12.132;2022-08-11T09:16:26;26.20;95.20
24097;DHT22;12275;48.550;12.132;2022-08-11T09:18:52;26.30;95.10
24097;DHT22;12275;48.550;12.132;2022-08-11T09:21:18;26.30;93.40
24097;DHT22;12275;48.550;12.132;2022-08-11T09:23:48;26.20;94.90
24097;DHT22;12275;48.550;12.132;2022-08-11T09:26:36;26.30;94.30
24097;DHT22;12275;48.550;12.132;2022-08-11T09:29:21;26.30;93.60
24097;DHT22;12275;48.550;12.132;2022-08-11T09:31:48;26.30;94.40
24097;DHT22;12275;48.550;12.132;2022-08-11T09:34:14;26.20;93.20
24097;DHT22;12275;48.550;12.132;2022-08-11T09:36:40;26.20;93.50
24097;DHT22;12275;48.550;12.132;2022-08-11T09:39:27;26.20;93.10
24097;DHT22;12275;48.550;12.132;2022-08-11T09:42:12;26.30;95.00
24097;DHT22;12275;48.550;12.132;2022-08-11T09:44:38;26.50;94.20
24097;DHT22;12275;48.550;12.132;2022-08-11T09:47:27;26.50;93.70
24097;DHT22;12275;48.550;12.132;2022-08-11T09:50:01;26.50;93.00
24097;DHT22;12275;48.550;12.132;2022-08-11T09:52:30;26.60;93.80
24097;DHT22;12275;48.550;12.132;2022-08-11T09:54:57;26.60;94.10
24097;DHT22;12275;48.550;12.132;2022-08-11T09:57:24;26.70;93.00
24097;DHT22;12275;48.550;12.132;2022-08-11T10:00:10;26.70;93.90
24097;DHT22;12275;48.550;12.132;2022-08-11T10:02:47;26.70;92.10
24097;DHT22;12275;48.550;12.132;2022-08-11T10:05:16;26.70;92.80
24097;DHT22;12275;48.550;12.132;2022-08-11T10:08:02;26.70;92.90
24097;DHT22;12275;48.550;12.132;2022-08-11T10:10:28;26.70;92.20
24097;DHT22;12275;48.550;12.132;2022-08-11T10:13:02;26.70;92.30
24097;DHT22;12275;48.550;12.132;2022-08-11T10:15:30;26.80;92.50
24097;DHT22;12275;48.550;12.132;2022-08-11T10:18:10;26.70;91.60
24097;DHT22;12275;48.550;12.132;2022-08-11T10:20:58;26.80;92.00
24097;DHT22;12275;48.550;12.132;2022-08-11T10:23:26;26.80;91.20
24097;DHT22;12275;48.550;12.132;2022-08-11T10:26:11;26.80;91.80
24097;DHT22;12275;48.550;12.132;2022-08-11T10:28:56;26.80;92.00
24097;DHT22;12275;48.550;12.132;2022-08-11T10:31:22;26.80;92.00
24097;DHT22;12275;48.550;12.132;2022-08-11T10:34:07;26.80;91.40
24097;DHT22;12275;48.550;12.132;2022-08-11T10:36:39;26.80;90.70
24097;DHT22;12275;48.550;12.132;2022-08-11T10:39:18;26.80;90.90
24097;DHT22;12275;48.550;12.132;2022-08-11T10:41:45;26.80;91.00
24097;DHT22;12275;48.550;12.132;2022-08-11T10:44:42;26.80;90.30
24097;DHT22;12275;48.550;12.132;2022-08-11T10:47:10;26.70;88.80
24097;DHT22;12275;48.550;12.132;2022-08-11T10:49:55;26.80;91.00
24097;DHT22;12275;48.550;12.132;2022-08-11T10:52:40;26.80;90.10
24097;DHT22;12275;48.550;12.132;2022-08-11T10:55:25;26.90;89.50
24097;DHT22;12275;48.550;12.132;2022-08-11T10:58:11;26.90;89.10
24097;DHT22;12275;48.550;12.132;2022-08-11T11:00:56;26.90;89.80
24097;DHT22;12275;48.550;12.132;2022-08-11T11:03:28;26.90;90.90
24097;DHT22;12275;48.550;12.132;2022-08-11T11:06:00;26.90;90.30
24097;DHT22;12275;48.550;12.132;2022-08-11T11:08:28;27.00;91.40
24097;DHT22;12275;48.550;12.132;2022-08-11T11:11:16;27.00;89.90
24097;DHT22;12275;48.550;12.132;2022-08-11T11:13:48;27.00;89.60
24097;DHT22;12275;48.550;12.132;2022-08-11T11:16:38;27.10;89.60
24097;DHT22;12275;48.550;12.132;2022-08-11T11:19:24;27.00;90.60
24097;DHT22;12275;48.550;12.132;2022-08-11T11:21:53;27.00;89.00
24097;DHT22;12275;48.550;12.132;2022-08-11T11:25:19;27.00;90.10
24097;DHT22;12275;48.550;12.132;2022-08-11T11:27:25;27.10;88.80
24097;DHT22;12275;48.550;12.132;2022-08-11T11:30:09;27.10;89.00
24097;DHT22;12275;48.550;12.132;2022-08-11T11:35:45;27.20;88.70
24097;DHT22;12275;48.550;12.132;2022-08-11T11:38:14;26.90;87.20
24097;DHT22;12275;48.550;12.132;2022-08-11T11:40:41;26.80;85.50
24097;DHT22;12275;48.550;12.132;2022-08-11T11:43:08;26.70;87.50
24097;DHT22;12275;48.550;12.132;2022-08-11T11:45:34;26.80;86.80
24097;DHT22;12275;48.550;12.132;2022-08-11T11:48:00;26.70;87.00
24097;DHT22;12275;48.550;12.132;2022-08-11T11:50:35;26.80;90.10
24097;DHT22;12275;48.550;12.132;2022-08-11T11:53:07;26.90;90.30
24097;DHT22;12275;48.550;12.132;2022-08-11T11:55:35;26.90;85.40
24097;DHT22;12275;48.550;12.132;2022-08-11T11:58:02;26.80;88.20
24097;DHT22;12275;48.550;12.132;2022-08-11T12:00:47;26.80;88.40
24097;DHT22;12275;48.550;12.132;2022-08-11T12:03:33;26.80;86.30
24097;DHT22;12275;48.550;12.132;2022-08-11T12:06:01;26.60;85.20
24097;DHT22;12275;48.550;12.132;2022-08-11T12:08:28;26.60;87.60
24097;DHT22;12275;48.550;12.132;2022-08-11T12:10:59;26.60;88.50
24097;DHT22;12275;48.550;12.132;2022-08-11T12:13:46;26.60;88.70
24097;DHT22;12275;48.550;12.132;2022-08-11T12:16:16;26.60;85.50
24097;DHT22;12275;48.550;12.132;2022-08-11T12:18:45;26.70;86.20
24097;DHT22;12275;48.550;12.132;2022-08-11T12:21:14;26.80;86.70
24097;DHT22;12275;48.550;12.132;2022-08-11T12:23:42;26.80;86.30
24097;DHT22;12275;48.550;12.132;2022-08-11T12:26:27;26.80;88.90
24097;DHT22;12275;48.550;12.132;2022-08-11T12:29:12;26.90;84.20
24097;DHT22;12275;48.550;12.132;2022-08-11T12:31:40;26.90;84.70
24097;DHT22;12275;48.550;12.132;2022-08-11T12:34:09;27.00;88.80
24097;DHT22;12275;48.550;12.132;2022-08-11T12:36:39;27.10;84.30
24097;DHT22;12275;48.550;12.132;2022-08-11T12:39:08;27.10;85.50
24097;DHT22;12275;48.550;12.132;2022-08-11T12:41:36;27.10;83.00
24097;DHT22;12275;48.550;12.132;2022-08-11T12:44:25;27.00;83.80
24097;DHT22;12275;48.550;12.132;2022-08-11T12:47:14;26.90;81.70
24097;DHT22;12275;48.550;12.132;2022-08-11T12:49:43;26.80;84.50
24097;DHT22;12275;48.550;12.132;2022-08-11T12:52:36;26.70;81.00
24097;DHT22;12275;48.550;12.132;2022-08-11T12:55:14;26.60;80.50
24097;DHT22;12275;48.550;12.132;2022-08-11T12:58:06;26.50;81.00
24097;DHT22;12275;48.550;12.132;2022-08-11T13:00:45;26.50;83.70
24097;DHT22;12275;48.550;12.132;2022-08-11T13:03:32;26.70;87.60
24097;DHT22;12275;48.550;12.132;2022-08-11T13:06:18;26.70;83.60
24097;DHT22;12275;48.550;12.132;2022-08-11T13:08:44;26.70;83.60
24097;DHT22;12275;48.550;12.132;2022-08-11T13:11:11;26.70;83.00
24097;DHT22;12275;48.550;12.132;2022-08-11T13:13:56;26.70;86.20
24097;DHT22;12275;48.550;12.132;2022-08-11T13:16:25;26.70;86.20
24097;DHT22;12275;48.550;12.132;2022-08-11T13:18:52;26.80;87.40
24097;DHT22;12275;48.550;12.132;2022-08-11T13:21:19;26.80;85.20
24097;DHT22;12275;48.550;12.132;2022-08-11T13:23:46;26.80;84.50
24097;DHT22;12275;48.550;12.132;2022-08-11T13:26:12;26.80;84.50
24097;DHT22;12275;48.550;12.132;2022-08-11T13:28:39;26.70;85.40
24097;DHT22;12275;48.550;12.132;2022-08-11T13:31:05;26.80;86.30
24097;DHT22;12275;48.550;12.132;2022-08-11T13:33:43;26.70;85.40
24097;DHT22;12275;48.550;12.132;2022-08-11T13:36:10;26.80;86.20
24097;DHT22;12275;48.550;12.132;2022-08-11T13:38:39;26.80;88.80
24097;DHT22;12275;48.550;12.132;2022-08-11T13:41:06;26.80;88.00
24097;DHT22;12275;48.550;12.132;2022-08-11T13:43:53;26.80;85.90
24097;DHT22;12275;48.550;12.132;2022-08-11T13:46:21;26.70;84.30
24097;DHT22;12275;48.550;12.132;2022-08-11T13:48:53;26.70;83.50
24097;DHT22;12275;48.550;12.132;2022-08-11T13:51:21;26.60;84.80
24097;DHT22;12275;48.550;12.132;2022-08-11T13:54:18;26.60;85.30
24097;DHT22;12275;48.550;12.132;2022-08-11T13:56:48;26.60;86.10
24097;DHT22;12275;48.550;12.132;2022-08-11T13:59:18;26.50;85.70
24097;DHT22;12275;48.550;12.132;2022-08-11T14:01:55;26.50;86.10
24097;DHT22;12275;48.550;12.132;2022-08-11T14:05:05;26.60;86.10
24097;DHT22;12275;48.550;12.132;2022-08-11T14:07:24;26.60;84.60
24097;DHT22;12275;48.550;12.132;2022-08-11T14:09:57;26.70;83.40
24097;DHT22;12275;48.550;12.132;2022-08-11T14:12:28;26.70;84.80
24097;DHT22;12275;48.550;12.132;2022-08-11T14:15:24;26.70;83.70
24097;DHT22;12275;48.550;12.132;2022-08-11T14:17:59;26.60;82.40
24097;DHT22;12275;48.550;12.132;2022-08-11T14:20:30;26.60;82.30
24097;DHT22;12275;48.550;12.132;2022-08-11T14:23:17;26.60;82.30
24097;DHT22;12275;48.550;12.132;2022-08-11T14:25:43;26.60;82.70
24097;DHT22;12275;48.550;12.132;2022-08-11T14:28:32;26.70;84.10
24097;DHT22;12275;48.550;12.132;2022-08-11T14:30:59;26.70;83.40
24097;DHT22;12275;48.550;12.132;2022-08-11T14:33:25;26.70;84.20
24097;DHT22;12275;48.550;12.132;2022-08-11T14:35:51;26.70;84.00
24097;DHT22;12275;48.550;12.132;2022-08-11T14:38:17;26.60;82.60
24097;DHT22;12275;48.550;12.132;2022-08-11T14:40:45;26.60;83.40
24097;DHT22;12275;48.550;12.132;2022-08-11T14:43:30;26.60;83.50
24097;DHT22;12275;48.550;12.132;2022-08-11T14:46:16;26.50;80.90
24097;DHT22;12275;48.550;12.132;2022-08-11T14:49:01;26.50;81.60
24097;DHT22;12275;48.550;12.132;2022-08-11T14:51:27;26.40;81.60
24097;DHT22;12275;48.550;12.132;2022-08-11T14:53:53;26.40;81.70
24097;DHT22;12275;48.550;12.132;2022-08-11T14:56:39;26.40;80.00
24097;DHT22;12275;48.550;12.132;2022-08-11T14:59:07;26.30;82.10
24097;DHT22;12275;48.550;12.132;2022-08-11T15:01:33;26.30;84.50
24097;DHT22;12275;48.550;12.132;2022-08-11T15:04:20;26.20;84.80
24097;DHT22;12275;48.550;12.132;2022-08-11T15:06:46;26.20;82.70
24097;DHT22;12275;48.550;12.132;2022-08-11T15:09:12;26.10;82.10
24097;DHT22;12275;48.550;12.132;2022-08-11T15:11:39;26.10;83.80
24097;DHT22;12275;48.550;12.132;2022-08-11T15:14:24;26.00;83.50
24097;DHT22;12275;48.550;12.132;2022-08-11T15:17:09;26.00;83.20
24097;DHT22;12275;48.550;12.132;2022-08-11T15:19:40;25.90;83.30
24097;DHT22;12275;48.550;12.132;2022-08-11T15:22:24;25.90;81.70
24097;DHT22;12275;48.550;12.132;2022-08-11T15:25:09;25.80;83.30
24097;DHT22;12275;48.550;12.132;2022-08-11T15:27:35;25.90;85.20
24097;DHT22;12275;48.550;12.132;2022-08-11T15:30:21;25.80;82.70
24097;DHT22;12275;48.550;12.132;2022-08-11T15:33:08;25.80;82.40
24097;DHT22;12275;48.550;12.132;2022-08-11T15:35:55;25.80;82.90
24097;DHT22;12275;48.550;12.132;2022-08-11T15:38:43;25.80;83.40
24097;DHT22;12275;48.550;12.132;2022-08-11T15:41:14;25.70;83.20
24097;DHT22;12275;48.550;12.132;2022-08-11T15:44:01;25.70;83.20
24097;DHT22;12275;48.550;12.132;2022-08-11T15:46:49;25.70;81.00
24097;DHT22;12275;48.550;12.132;2022-08-11T15:49:31;25.70;79.60
24097;DHT22;12275;48.550;12.132;2022-08-11T15:52:03;25.60;80.10
24097;DHT22;12275;48.550;12.132;2022-08-11T15:54:31;25.60;79.60
24097;DHT22;12275;48.550;12.132;2022-08-11T15:57:00;25.60;78.90
24097;DHT22;12275;48.550;12.132;2022-08-11T15:59:27;25.60;80.80
24097;DHT22;12275;48.550;12.132;2022-08-11T16:02:16;25.60;80.20
24097;DHT22;12275;48.550;12.132;2022-08-11T16:05:11;25.60;81.60
24097;DHT22;12275;48.550;12.132;2022-08-11T16:07:40;25.60;83.60
24097;DHT22;12275;48.550;12.132;2022-08-11T16:10:11;25.50;80.00
24097;DHT22;12275;48.550;12.132;2022-08-11T16:13:01;25.50;81.90
24097;DHT22;12275;48.550;12.132;2022-08-11T16:15:36;25.50;82.20
24097;DHT22;12275;48.550;12.132;2022-08-11T16:18:23;25.50;82.40
24097;DHT22;12275;48.550;12.132;2022-08-11T16:20:51;25.50;82.80
24097;DHT22;12275;48.550;12.132;2022-08-11T16:23:21;25.50;83.40
24097;DHT22;12275;48.550;12.132;2022-08-11T16:25:51;25.40;82.30
24097;DHT22;12275;48.550;12.132;2022-08-11T16:28:19;25.40;82.50
24097;DHT22;12275;48.550;12.132;2022-08-11T16:30:46;25.40;83.30
24097;DHT22;12275;48.550;12.132;2022-08-11T16:33:14;25.40;83.50
24097;DHT22;12275;48.550;12.132;2022-08-11T16:35:47;25.30;83.10
24097;DHT22;12275;48.550;12.132;2022-08-11T16:38:32;25.30;82.00
24097;DHT22;12275;48.550;12.132;2022-08-11T16:41:06;25.30;82.30
24097;DHT22;12275;48.550;12.132;2022-08-11T16:43:36;25.30;83.70
24097;DHT22;12275;48.550;12.132;2022-08-11T16:46:24;25.30;83.90
24097;DHT22;12275;48.550;12.132;2022-08-11T16:49:17;25.30;83.60
24097;DHT22;12275;48.550;12.132;2022-08-11T16:51:44;25.30;84.50
24097;DHT22;12275;48.550;12.132;2022-08-11T16:54:10;25.30;84.00
24097;DHT22;12275;48.550;12.132;2022-08-11T16:56:50;25.20;84.00
24097;DHT22;12275;48.550;12.132;2022-08-11T16:59:24;25.20;84.20
24097;DHT22;12275;48.550;12.132;2022-08-11T17:01:53;25.20;84.60
24097;DHT22;12275;48.550;12.132;2022-08-11T17:07:11;25.20;84.80
24097;DHT22;12275;48.550;12.132;2022-08-11T17:09:57;25.10;84.60
24097;DHT22;12275;48.550;12.132;2022-08-11T17:12:44;25.10;84.90
24097;DHT22;12275;48.550;12.132;2022-08-11T17:15:32;25.10;86.80
24097;DHT22;12275;48.550;12.132;2022-08-11T17:18:18;25.10;84.90
24097;DHT22;12275;48.550;12.132;2022-08-11T17:21:08;25.10;85.20
24097;DHT22;12275;48.550;12.132;2022-08-11T17:23:40;25.00;85.80
24097;DHT22;12275;48.550;12.132;2022-08-11T17:26:38;25.00;86.00
24097;DHT22;12275;48.550;12.132;2022-08-11T17:32:08;25.00;86.50
24097;DHT22;12275;48.550;12.132;2022-08-11T17:34:58;25.00;87.00
24097;DHT22;12275;48.550;12.132;2022-08-11T17:37:43;25.00;86.90
24097;DHT22;12275;48.550;12.132;2022-08-11T17:40:13;25.00;87.10
24097;DHT22;12275;48.550;12.132;2022-08-11T17:42:40;25.00;87.20
24097;DHT22;12275;48.550;12.132;2022-08-11T17:45:26;25.00;87.30
24097;DHT22;12275;48.550;12.132;2022-08-11T17:48:11;24.90;86.50
24097;DHT22;12275;48.550;12.132;2022-08-11T17:50:52;24.90;87.30
24097;DHT22;12275;48.550;12.132;2022-08-11T17:53:19;24.90;86.70
24097;DHT22;12275;48.550;12.132;2022-08-11T17:56:04;24.90;86.80
24097;DHT22;12275;48.550;12.132;2022-08-11T17:58:51;24.90;87.40
24097;DHT22;12275;48.550;12.132;2022-08-11T18:01:37;24.90;88.20
24097;DHT22;12275;48.550;12.132;2022-08-11T18:04:09;24.90;88.10
24097;DHT22;12275;48.550;12.132;2022-08-11T18:06:36;24.90;88.30
24097;DHT22;12275;48.550;12.132;2022-08-11T18:09:08;24.80;88.50
24097;DHT22;12275;48.550;12.132;2022-08-11T18:11:54;24.80;88.40
24097;DHT22;12275;48.550;12.132;2022-08-11T18:14:43;24.80;88.00
24097;DHT22;12275;48.550;12.132;2022-08-11T18:17:28;24.80;88.10
24097;DHT22;12275;48.550;12.132;2022-08-11T18:20:12;24.70;88.50
24097;DHT22;12275;48.550;12.132;2022-08-11T18:22:57;24.70;88.60
24097;DHT22;12275;48.550;12.132;2022-08-11T18:25:44;24.70;88.70
24097;DHT22;12275;48.550;12.132;2022-08-11T18:28:36;24.70;88.70
24097;DHT22;12275;48.550;12.132;2022-08-11T18:31:22;24.70;88.90
24097;DHT22;12275;48.550;12.132;2022-08-11T18:34:11;24.60;89.50
24097;DHT22;12275;48.550;12.132;2022-08-11T18:37:06;24.60;89.50
24097;DHT22;12275;48.550;12.132;2022-08-11T18:39:57;24.60;90.30
24097;DHT22;12275;48.550;12.132;2022-08-11T18:42:46;24.60;90.40
24097;DHT22;12275;48.550;12.132;2022-08-11T18:45:31;24.50;90.40
24097;DHT22;12275;48.550;12.132;2022-08-11T18:48:20;24.50;90.50
24097;DHT22;12275;48.550;12.132;2022-08-11T18:51:08;24.50;90.40
24097;DHT22;12275;48.550;12.132;2022-08-11T18:54:05;24.40;90.20
24097;DHT22;12275;48.550;12.132;2022-08-11T18:56:50;24.40;90.20
24097;DHT22;12275;48.550;12.132;2022-08-11T18:59:37;24.40;90.40
24097;DHT22;12275;48.550;12.132;2022-08-11T19:02:24;24.40;90.40
24097;DHT22;12275;48.550;12.132;2022-08-11T19:05:09;24.30;90.80
24097;DHT22;12275;48.550;12.132;2022-08-11T19:07:56;24.20;90.60
24097;DHT22;12275;48.550;12.132;2022-08-11T19:10:45;24.20;90.60
24097;DHT22;12275;48.550;12.132;2022-08-11T19:13:31;24.20;90.70
24097;DHT22;12275;48.550;12.132;2022-08-11T19:16:16;24.20;91.00
24097;DHT22;12275;48.550;12.132;2022-08-11T19:19:02;24.20;91.20
24097;DHT22;12275;48.550;12.132;2022-08-11T19:21:48;24.10;91.50
24097;DHT22;12275;48.550;12.132;2022-08-11T19:24:36;24.10;91.80
24097;DHT22;12275;48.550;12.132;2022-08-11T19:27:24;24.00;92.10
24097;DHT22;12275;48.550;12.132;2022-08-11T19:30:10;23.90;92.20
24097;DHT22;12275;48.550;12.132;2022-08-11T19:32:54;23.90;92.10
24097;DHT22;12275;48.550;12.132;2022-08-11T19:35:41;23.80;91.90